createdAt,value
2018-07-20T00:01:02.339Z,15.50
2018-07-20T00:03:31.045Z,15.40
2018-07-20T00:05:59.741Z,15.40
2018-07-20T00:08:28.441Z,15.40
2018-07-20T00:10:57.099Z,15.40
2018-07-20T00:13:25.778Z,15.40
2018-07-20T00:15:54.430Z,15.30
2018-07-20T00:18:23.242Z,15.30
2018-07-20T00:20:51.906Z,15.20
2018-07-20T00:23:20.565Z,15.20
2018-07-20T00:25:49.280Z,15.10
2018-07-20T00:28:17.927Z,15.10
2018-07-20T00:30:46.603Z,15.10
2018-07-20T00:33:15.327Z,15.00
2018-07-20T00:35:44.000Z,15.00
2018-07-20T00:40:41.008Z,14.80
2018-07-20T00:43:09.682Z,14.80
2018-07-20T00:45:38.370Z,14.80
2018-07-20T00:48:07.014Z,14.70
2018-07-20T00:50:35.735Z,14.70
2018-07-20T00:53:04.427Z,14.60
2018-07-20T00:55:33.169Z,14.60
2018-07-20T00:58:01.974Z,14.50
2018-07-20T01:00:30.705Z,14.50
2018-07-20T01:02:59.412Z,14.50
2018-07-20T01:05:28.091Z,14.50
2018-07-20T01:07:56.782Z,14.50
2018-07-20T01:10:25.460Z,14.50
2018-07-20T01:12:54.553Z,14.50
2018-07-20T01:15:23.252Z,14.50
2018-07-20T01:17:51.949Z,14.50
2018-07-20T01:20:20.727Z,14.40
2018-07-20T01:22:49.454Z,14.30
2018-07-20T01:25:18.132Z,14.30
2018-07-20T01:30:15.105Z,14.30
2018-07-20T01:32:43.816Z,14.30
2018-07-20T01:35:12.492Z,14.20
2018-07-20T01:37:41.162Z,14.20
2018-07-20T01:42:38.173Z,14.00
2018-07-20T01:45:06.931Z,14.00
2018-07-20T01:47:36.573Z,14.00
2018-07-20T01:50:05.955Z,13.90
2018-07-20T01:52:34.659Z,13.90
2018-07-20T01:55:03.528Z,13.80
2018-07-20T01:57:32.217Z,13.80
2018-07-20T02:00:00.895Z,13.80
2018-07-20T02:02:29.569Z,13.80
2018-07-20T02:04:58.265Z,13.70
2018-07-20T02:07:26.961Z,13.70
2018-07-20T02:09:55.658Z,13.70
2018-07-20T02:12:30.787Z,13.70
2018-07-20T02:14:59.475Z,13.60
2018-07-20T02:17:28.194Z,13.60
2018-07-20T02:19:56.902Z,13.60
2018-07-20T02:22:25.630Z,13.60
2018-07-20T02:24:54.306Z,13.50
2018-07-20T02:27:23.015Z,13.60
2018-07-20T02:29:51.742Z,13.50
2018-07-20T02:32:20.453Z,13.50
2018-07-20T02:34:49.136Z,13.50
2018-07-20T02:37:17.807Z,13.50
2018-07-20T02:39:46.518Z,13.50
2018-07-20T02:42:15.195Z,13.40
2018-07-20T02:47:12.278Z,13.40
2018-07-20T02:49:40.962Z,13.40
2018-07-20T02:52:09.661Z,13.40
2018-07-20T02:54:38.350Z,13.40
2018-07-20T02:57:07.008Z,13.30
2018-07-20T02:59:35.668Z,13.30
2018-07-20T03:02:04.381Z,13.30
2018-07-20T03:07:01.358Z,13.30
2018-07-20T03:09:30.022Z,13.20
2018-07-20T03:11:58.770Z,13.20
2018-07-20T03:14:27.438Z,13.10
2018-07-20T03:16:56.139Z,13.10
2018-07-20T03:19:24.804Z,13.00
2018-07-20T03:21:53.522Z,13.00
2018-07-20T03:24:22.193Z,12.90
2018-07-20T03:26:50.864Z,12.90
2018-07-20T03:29:19.607Z,12.90
2018-07-20T03:31:48.281Z,12.80
2018-07-20T03:34:16.971Z,12.90
2018-07-20T03:36:45.669Z,12.80
2018-07-20T03:39:14.369Z,12.80
2018-07-20T03:41:43.082Z,12.80
2018-07-20T03:44:11.793Z,12.80
2018-07-20T03:46:40.445Z,12.80
2018-07-20T03:49:09.192Z,12.80
2018-07-20T03:51:37.861Z,12.80
2018-07-20T03:54:06.615Z,12.80
2018-07-20T03:56:35.285Z,12.80
2018-07-20T04:01:32.553Z,12.80
2018-07-20T04:04:01.231Z,12.80
2018-07-20T04:06:29.937Z,12.90
2018-07-20T04:08:58.629Z,12.90
2018-07-20T04:11:27.330Z,12.90
2018-07-20T04:13:55.992Z,13.00
2018-07-20T04:16:24.685Z,13.00
2018-07-20T04:18:53.341Z,13.10
2018-07-20T04:21:22.415Z,13.10
2018-07-20T04:23:51.111Z,13.10
2018-07-20T04:26:19.785Z,13.10
2018-07-20T04:28:48.517Z,13.20
2018-07-20T04:31:17.408Z,13.20
2018-07-20T04:36:14.517Z,13.20
2018-07-20T04:38:43.249Z,13.40
2018-07-20T04:41:11.971Z,13.40
2018-07-20T04:43:40.799Z,13.50
2018-07-20T04:46:09.459Z,13.50
2018-07-20T04:48:38.137Z,13.50
2018-07-20T04:51:07.192Z,13.60
2018-07-20T04:53:35.865Z,13.70
2018-07-20T04:56:04.569Z,13.80
2018-07-20T04:58:33.224Z,14.00
2018-07-20T05:01:01.920Z,14.10
2018-07-20T05:03:30.613Z,14.20
2018-07-20T05:05:59.315Z,14.30
2018-07-20T05:08:28.048Z,14.40
2018-07-20T05:10:56.763Z,14.50
2018-07-20T05:13:25.513Z,14.50
2018-07-20T05:15:54.267Z,14.60
2018-07-20T05:18:23.034Z,14.60
2018-07-20T05:20:51.817Z,14.70
2018-07-20T05:23:20.669Z,14.70
2018-07-20T05:25:49.413Z,14.80
2018-07-20T05:28:18.226Z,14.80
2018-07-20T05:30:46.951Z,14.90
2018-07-20T05:33:15.701Z,15.00
2018-07-20T05:35:44.482Z,15.10
2018-07-20T05:38:13.272Z,15.20
2018-07-20T05:40:42.019Z,15.30
2018-07-20T05:43:10.838Z,15.40
2018-07-20T05:45:39.626Z,15.60
2018-07-20T05:48:08.505Z,15.80
2018-07-20T05:50:37.242Z,16.00
2018-07-20T05:53:06.004Z,16.10
2018-07-20T05:58:03.004Z,16.30
2018-07-20T06:00:31.709Z,16.50
2018-07-20T06:03:00.382Z,16.70
2018-07-20T06:05:29.114Z,17.00
2018-07-20T06:07:57.769Z,17.20
2018-07-20T06:10:26.497Z,17.30
2018-07-20T06:12:55.188Z,17.50
2018-07-20T06:15:23.874Z,17.60
2018-07-20T06:17:52.606Z,17.80
2018-07-20T06:20:21.279Z,17.90
2018-07-20T06:22:49.962Z,18.20
2018-07-20T06:25:18.779Z,18.30
2018-07-20T06:27:47.483Z,18.40
2018-07-20T06:30:16.225Z,18.50
2018-07-20T06:32:44.916Z,18.60
2018-07-20T06:35:13.590Z,18.70
2018-07-20T06:37:42.277Z,18.80
2018-07-20T06:40:10.985Z,19.00
2018-07-20T06:42:39.676Z,19.20
2018-07-20T06:45:08.449Z,19.40
2018-07-20T06:47:37.160Z,19.50
2018-07-20T06:50:11.070Z,19.80
2018-07-20T06:52:39.754Z,20.00
2018-07-20T06:55:08.516Z,20.20
2018-07-20T06:57:37.220Z,20.40
2018-07-20T07:00:06.370Z,20.60
2018-07-20T07:02:35.329Z,20.70
2018-07-20T07:05:04.129Z,20.80
2018-07-20T07:07:32.845Z,21.10
2018-07-20T07:10:01.544Z,21.20
2018-07-20T07:12:30.254Z,21.40
2018-07-20T07:14:58.948Z,21.70
2018-07-20T07:17:27.614Z,21.80
2018-07-20T07:19:56.278Z,22.10
2018-07-20T07:22:24.921Z,22.30
2018-07-20T07:24:53.596Z,22.40
2018-07-20T07:27:22.302Z,22.60
2018-07-20T07:29:50.939Z,22.90
2018-07-20T07:32:19.650Z,23.10
2018-07-20T07:34:48.418Z,23.30
2018-07-20T07:37:17.102Z,23.40
2018-07-20T07:39:45.765Z,23.50
2018-07-20T07:42:14.530Z,23.50
2018-07-20T07:44:43.144Z,23.60
2018-07-20T07:47:11.897Z,23.50
2018-07-20T07:49:40.570Z,23.60
2018-07-20T07:52:09.279Z,23.70
2018-07-20T07:57:06.498Z,24.00
2018-07-20T07:59:35.162Z,24.20
2018-07-20T08:02:03.858Z,24.40
2018-07-20T08:04:32.551Z,24.50
2018-07-20T08:07:01.252Z,24.60
2018-07-20T08:09:29.917Z,24.40
2018-07-20T08:11:58.557Z,24.40
2018-07-20T08:14:27.239Z,24.30
2018-07-20T08:16:55.885Z,24.30
2018-07-20T08:19:24.569Z,24.20
2018-07-20T08:21:53.312Z,24.20
2018-07-20T08:24:21.982Z,24.30
2018-07-20T08:26:50.662Z,24.40
2018-07-20T08:29:19.364Z,24.40
2018-07-20T08:31:48.030Z,24.50
2018-07-20T08:34:19.535Z,24.60
2018-07-20T08:36:48.207Z,24.70
2018-07-20T08:39:16.848Z,24.70
2018-07-20T08:41:45.537Z,24.70
2018-07-20T08:44:14.201Z,24.70
2018-07-20T08:46:42.933Z,24.90
2018-07-20T08:49:11.566Z,25.00
2018-07-20T08:51:40.256Z,25.10
2018-07-20T08:54:08.960Z,25.20
2018-07-20T08:56:37.641Z,25.30
2018-07-20T08:59:06.564Z,25.40
2018-07-20T09:01:35.234Z,25.60
2018-07-20T09:04:03.922Z,25.70
2018-07-20T09:06:32.582Z,25.90
2018-07-20T09:09:01.271Z,26.10
2018-07-20T09:11:29.965Z,26.20
2018-07-20T09:13:58.759Z,26.30
2018-07-20T09:16:27.337Z,26.40
2018-07-20T09:18:55.990Z,26.50
2018-07-20T09:21:24.756Z,26.50
2018-07-20T09:26:21.802Z,26.30
2018-07-20T09:28:50.499Z,26.40
2018-07-20T09:31:19.190Z,26.40
2018-07-20T09:33:47.950Z,26.30
2018-07-20T09:36:16.707Z,26.30
2018-07-20T09:38:45.384Z,26.30
2018-07-20T09:41:14.052Z,26.30
2018-07-20T09:43:42.749Z,26.40
2018-07-20T09:46:11.460Z,26.60
2018-07-20T09:48:40.126Z,26.80
2018-07-20T09:51:08.848Z,27.00
2018-07-20T09:53:38.501Z,27.20
2018-07-20T09:58:35.605Z,27.50
2018-07-20T10:01:04.304Z,27.60
2018-07-20T10:03:33.146Z,27.60
2018-07-20T10:06:01.883Z,27.80
2018-07-20T10:08:30.657Z,27.90
2018-07-20T10:10:59.475Z,28.00
2018-07-20T10:13:28.597Z,28.10
2018-07-20T10:15:57.302Z,28.20
2018-07-20T10:20:54.406Z,28.40
2018-07-20T10:23:23.208Z,28.40
2018-07-20T10:25:51.961Z,28.40
2018-07-20T10:28:20.673Z,28.40
2018-07-20T10:30:49.623Z,28.60
2018-07-20T10:33:18.322Z,28.80
2018-07-20T10:35:47.058Z,29.00
2018-07-20T10:38:15.751Z,29.00
2018-07-20T10:40:44.503Z,29.20
2018-07-20T10:43:13.262Z,29.10
2018-07-20T10:45:42.066Z,29.20
2018-07-20T10:48:10.790Z,29.40
2018-07-20T10:50:39.498Z,29.60
2018-07-20T10:53:08.271Z,29.80
2018-07-20T10:55:37.181Z,29.90
2018-07-20T10:58:06.040Z,30.10
2018-07-20T11:00:34.701Z,30.30
2018-07-20T11:03:03.391Z,30.30
2018-07-20T11:05:32.038Z,30.40
2018-07-20T11:08:00.790Z,30.80
2018-07-20T11:10:29.471Z,31.20
2018-07-20T11:12:58.160Z,31.30
2018-07-20T11:15:33.241Z,31.50
2018-07-20T11:18:01.901Z,31.50
2018-07-20T11:20:30.552Z,31.50
2018-07-20T11:22:59.235Z,31.60
2018-07-20T11:25:27.942Z,31.50
2018-07-20T11:27:56.646Z,31.40
2018-07-20T11:30:25.323Z,31.50
2018-07-20T11:32:53.987Z,31.20
2018-07-20T11:35:22.657Z,31.10
2018-07-20T11:37:51.419Z,31.20
2018-07-20T11:40:20.114Z,31.40
2018-07-20T11:42:48.819Z,31.50
2018-07-20T11:45:17.608Z,31.50
2018-07-20T11:47:46.371Z,31.80
2018-07-20T11:50:15.063Z,31.90
2018-07-20T11:52:43.758Z,32.10
2018-07-20T11:55:12.418Z,32.20
2018-07-20T12:00:09.442Z,33.20
2018-07-20T12:02:38.128Z,33.50
2018-07-20T12:05:06.874Z,33.60
2018-07-20T12:07:35.597Z,33.80
2018-07-20T12:10:04.338Z,34.00
2018-07-20T12:12:33.012Z,34.10
2018-07-20T12:15:01.732Z,34.20
2018-07-20T12:17:30.410Z,34.30
2018-07-20T12:19:59.082Z,34.30
2018-07-20T12:24:56.107Z,34.20
2018-07-20T12:27:24.760Z,33.90
2018-07-20T12:29:53.459Z,34.00
2018-07-20T12:32:22.134Z,33.90
2018-07-20T12:34:50.806Z,33.90
2018-07-20T12:37:19.544Z,33.70
2018-07-20T12:39:48.239Z,34.00
2018-07-20T12:42:16.928Z,34.10
2018-07-20T12:44:45.620Z,33.90
2018-07-20T12:47:14.323Z,33.80
2018-07-20T12:49:42.954Z,33.80
2018-07-20T12:52:11.698Z,33.70
2018-07-20T12:54:40.385Z,33.30
2018-07-20T12:59:37.671Z,32.40
2018-07-20T13:02:06.482Z,32.30
2018-07-20T13:04:35.133Z,32.10
2018-07-20T13:07:03.805Z,31.90
2018-07-20T13:12:00.899Z,31.50
2018-07-20T13:14:29.562Z,31.30
2018-07-20T13:19:26.530Z,32.30
2018-07-20T13:21:55.185Z,32.90
2018-07-20T13:24:23.896Z,33.40
2018-07-20T13:26:52.563Z,33.80
2018-07-20T13:29:21.410Z,34.40
2018-07-20T13:31:50.107Z,35.00
2018-07-20T13:34:18.796Z,35.10
2018-07-20T13:36:47.527Z,35.30
2018-07-20T13:41:44.478Z,36.10
2018-07-20T13:44:13.131Z,36.40
2018-07-20T13:46:41.843Z,36.20
2018-07-20T13:49:10.508Z,36.30
2018-07-20T13:51:39.228Z,36.60
2018-07-20T13:54:08.169Z,37.20
2018-07-20T13:56:36.917Z,37.30
2018-07-20T13:59:05.900Z,37.40
2018-07-20T14:01:34.604Z,37.50
2018-07-20T14:06:31.657Z,37.40
2018-07-20T14:09:00.352Z,37.60
2018-07-20T14:13:57.439Z,37.90
2018-07-20T14:16:26.163Z,37.40
2018-07-20T14:18:54.905Z,37.20
2018-07-20T14:21:23.635Z,36.80
2018-07-20T14:23:52.341Z,36.50
2018-07-20T14:26:21.075Z,36.60
2018-07-20T14:28:56.374Z,36.80
2018-07-20T14:31:25.173Z,37.60
2018-07-20T14:33:53.894Z,38.00
2018-07-20T14:36:22.615Z,38.30
2018-07-20T14:38:51.260Z,38.50
2018-07-20T14:41:19.940Z,38.80
2018-07-20T14:43:48.618Z,39.10
2018-07-20T14:48:45.622Z,39.10
2018-07-20T14:51:14.466Z,38.90
2018-07-20T14:53:43.118Z,38.50
2018-07-20T14:56:11.815Z,38.00
2018-07-20T14:58:40.473Z,38.00
2018-07-20T15:01:09.153Z,37.80
2018-07-20T15:03:37.811Z,37.60
2018-07-20T15:06:06.498Z,37.70
2018-07-20T15:08:35.260Z,37.90
2018-07-20T15:11:03.923Z,38.00
2018-07-20T15:13:32.623Z,38.40
2018-07-20T15:16:01.289Z,38.70
2018-07-20T15:18:30.030Z,39.00
2018-07-20T15:20:58.772Z,39.10
2018-07-20T15:23:27.485Z,39.10
2018-07-20T15:25:56.218Z,38.80
2018-07-20T15:28:24.901Z,39.00
2018-07-20T15:30:53.619Z,38.90
2018-07-20T15:33:22.358Z,39.00
2018-07-20T15:35:51.095Z,39.50
2018-07-20T15:38:19.770Z,39.40
2018-07-20T15:40:48.464Z,39.50
2018-07-20T15:43:17.318Z,40.00
2018-07-20T15:45:52.036Z,39.80
2018-07-20T15:48:14.830Z,39.50
2018-07-20T15:50:43.528Z,39.20
2018-07-20T15:53:38.284Z,38.60
2018-07-20T15:55:40.943Z,38.50
2018-07-20T15:58:09.611Z,38.20
2018-07-20T16:03:06.780Z,37.90
2018-07-20T16:05:35.570Z,37.80
2018-07-20T16:08:04.270Z,38.30
2018-07-20T16:10:33.306Z,38.40
2018-07-20T16:13:02.027Z,38.10
2018-07-20T16:15:30.727Z,38.40
2018-07-20T16:17:59.458Z,38.10
2018-07-20T16:20:28.146Z,38.30
2018-07-20T16:22:56.897Z,38.60
2018-07-20T16:25:25.578Z,38.60
2018-07-20T16:27:54.288Z,38.90
2018-07-20T16:30:22.973Z,38.30
2018-07-20T16:32:51.638Z,37.70
2018-07-20T16:35:20.334Z,37.80
2018-07-20T16:37:49.015Z,38.00
2018-07-20T16:40:21.199Z,38.30
2018-07-20T16:42:49.945Z,38.50
2018-07-20T16:45:19.975Z,37.90
2018-07-20T16:47:49.222Z,37.70
2018-07-20T16:50:19.283Z,37.70
2018-07-20T16:52:47.954Z,37.70
2018-07-20T16:55:16.662Z,37.70
2018-07-20T16:57:45.354Z,37.70
2018-07-20T17:00:14.267Z,37.70
2018-07-20T17:02:42.951Z,37.90
2018-07-20T17:05:11.648Z,37.60
2018-07-20T17:07:40.342Z,37.60
2018-07-20T17:10:09.039Z,37.30
2018-07-20T17:12:37.731Z,37.10
2018-07-20T17:15:06.566Z,37.00
2018-07-20T17:17:35.743Z,36.60
2018-07-20T17:20:04.924Z,36.70
2018-07-20T17:22:33.748Z,37.00
2018-07-20T17:25:02.547Z,36.70
2018-07-20T17:27:31.389Z,36.90
2018-07-20T17:30:00.091Z,36.90
2018-07-20T17:32:28.772Z,36.70
2018-07-20T17:34:57.498Z,36.40
2018-07-20T17:37:26.168Z,35.60
2018-07-20T17:39:54.867Z,35.00
2018-07-20T17:42:23.531Z,34.20
2018-07-20T17:44:52.244Z,33.70
2018-07-20T17:47:21.512Z,33.30
2018-07-20T17:49:50.314Z,33.00
2018-07-20T17:52:19.070Z,32.60
2018-07-20T17:54:47.806Z,32.30
2018-07-20T17:59:44.954Z,31.80
2018-07-20T18:02:13.681Z,31.50
2018-07-20T18:04:42.441Z,31.40
2018-07-20T18:07:11.157Z,31.20
2018-07-20T18:09:39.804Z,31.10
2018-07-20T18:12:08.548Z,30.80
2018-07-20T18:14:37.226Z,30.60
2018-07-20T18:17:06.079Z,30.40
2018-07-20T18:19:35.099Z,30.20
2018-07-20T18:22:03.971Z,30.00
2018-07-20T18:24:32.736Z,29.80
2018-07-20T18:27:01.685Z,29.70
2018-07-20T18:29:30.311Z,29.50
2018-07-20T18:31:59.015Z,29.50
2018-07-20T18:34:28.570Z,29.30
2018-07-20T18:36:57.357Z,29.10
2018-07-20T18:39:26.092Z,29.00
2018-07-20T18:41:54.776Z,28.80
2018-07-20T18:44:23.513Z,28.70
2018-07-20T18:46:52.198Z,28.60
2018-07-20T18:49:20.945Z,28.50
2018-07-20T18:51:49.659Z,28.40
2018-07-20T18:54:18.355Z,28.10
2018-07-20T18:56:49.918Z,28.00
2018-07-20T18:59:18.619Z,27.80
2018-07-20T19:01:47.304Z,27.60
2018-07-20T19:04:16.011Z,27.50
2018-07-20T19:06:44.747Z,27.50
2018-07-20T19:09:13.478Z,27.40
2018-07-20T19:11:42.267Z,27.20
2018-07-20T19:14:11.015Z,27.10
2018-07-20T19:16:39.782Z,27.00
2018-07-20T19:19:08.585Z,26.90
2018-07-20T19:21:37.352Z,26.80
2018-07-20T19:24:06.053Z,26.70
2018-07-20T19:26:34.854Z,26.60
2018-07-20T19:29:03.555Z,26.50
2018-07-20T19:31:32.459Z,26.40
2018-07-20T19:34:01.199Z,26.30
2018-07-20T19:36:30.285Z,26.20
2018-07-20T19:38:59.010Z,25.90
2018-07-20T19:41:27.889Z,25.10
2018-07-20T19:43:56.904Z,24.50
2018-07-20T19:46:25.746Z,24.00
2018-07-20T19:48:54.457Z,23.90
2018-07-20T19:51:23.174Z,23.80
2018-07-20T19:53:51.945Z,23.90
2018-07-20T19:56:20.680Z,23.90
2018-07-20T19:58:49.652Z,24.10
2018-07-20T20:01:18.367Z,24.10
2018-07-20T20:03:47.067Z,24.10
2018-07-20T20:06:15.758Z,24.10
2018-07-20T20:08:44.417Z,24.20
2018-07-20T20:11:13.170Z,24.20
2018-07-20T20:13:41.891Z,24.20
2018-07-20T20:16:10.647Z,24.20
2018-07-20T20:18:39.358Z,24.20
2018-07-20T20:21:08.130Z,24.40
2018-07-20T20:23:36.815Z,24.40
2018-07-20T20:26:05.792Z,24.40
2018-07-20T20:28:34.626Z,24.40
2018-07-20T20:31:03.353Z,24.20
2018-07-20T20:33:32.053Z,24.20
2018-07-20T20:36:01.252Z,24.20
2018-07-20T20:38:30.058Z,24.10
2018-07-20T20:40:58.780Z,24.10
2018-07-20T20:43:27.887Z,24.10
2018-07-20T20:45:56.675Z,24.10
2018-07-20T20:48:25.442Z,24.10
2018-07-20T20:50:54.370Z,24.10
2018-07-20T20:53:23.206Z,24.10
2018-07-20T20:55:51.930Z,24.00
2018-07-20T20:58:20.693Z,24.10
2018-07-20T21:00:49.397Z,24.20
2018-07-20T21:03:18.083Z,24.10
2018-07-20T21:05:46.818Z,24.10
2018-07-20T21:08:15.486Z,24.10
2018-07-20T21:10:44.238Z,24.10
2018-07-20T21:13:12.958Z,23.90
2018-07-20T21:15:41.660Z,23.90
2018-07-20T21:18:10.325Z,23.90
2018-07-20T21:20:39.031Z,23.80
2018-07-20T21:23:07.740Z,23.70
2018-07-20T21:25:36.441Z,23.60
2018-07-20T21:28:05.150Z,23.60
2018-07-20T21:30:33.831Z,23.60
2018-07-20T21:33:02.589Z,23.50
2018-07-20T21:35:31.258Z,23.50
2018-07-20T21:38:00.054Z,23.40
2018-07-20T21:40:28.771Z,23.40
2018-07-20T21:42:57.470Z,23.30
2018-07-20T21:45:26.158Z,23.20
2018-07-20T21:47:54.906Z,23.10
2018-07-20T21:50:23.611Z,23.00
2018-07-20T21:52:52.338Z,22.90
2018-07-20T21:55:21.075Z,22.80
2018-07-20T21:57:49.939Z,22.70
2018-07-20T22:00:19.585Z,22.60
2018-07-20T22:02:48.988Z,22.60
2018-07-20T22:05:17.937Z,22.50
2018-07-20T22:07:46.604Z,22.40
2018-07-20T22:10:15.342Z,22.30
2018-07-20T22:12:44.053Z,22.30
2018-07-20T22:15:12.785Z,22.20
2018-07-20T22:17:41.479Z,22.20
2018-07-20T22:20:10.454Z,22.20
2018-07-20T22:22:39.145Z,22.10
2018-07-20T22:25:08.033Z,22.00
2018-07-20T22:27:37.331Z,21.90
2018-07-20T22:30:07.914Z,21.90
2018-07-20T22:32:36.684Z,21.80
2018-07-20T22:35:05.492Z,21.80
2018-07-20T22:37:34.200Z,21.80
2018-07-20T22:40:02.900Z,21.70
2018-07-20T22:42:31.620Z,21.60
2018-07-20T22:45:06.767Z,21.60
2018-07-20T22:47:35.476Z,21.50
2018-07-20T22:50:04.347Z,21.40
2018-07-20T22:52:33.055Z,21.40
2018-07-20T22:55:01.731Z,21.40
2018-07-20T22:57:30.452Z,21.30
2018-07-20T22:59:59.157Z,21.30
2018-07-20T23:02:27.834Z,21.30
2018-07-20T23:04:56.550Z,21.20
2018-07-20T23:07:25.218Z,21.10
2018-07-20T23:09:53.959Z,21.10
2018-07-20T23:12:22.661Z,21.10
2018-07-20T23:14:51.379Z,21.10
2018-07-20T23:17:20.063Z,21.00
2018-07-20T23:19:48.746Z,21.00
2018-07-20T23:22:17.432Z,20.90
2018-07-20T23:24:46.415Z,20.80
2018-07-20T23:27:15.196Z,20.70
2018-07-20T23:29:43.906Z,20.60
2018-07-20T23:32:12.624Z,20.50
2018-07-20T23:34:41.291Z,20.50
2018-07-20T23:37:09.993Z,20.40
2018-07-20T23:39:38.671Z,20.40
2018-07-20T23:42:07.401Z,20.30
2018-07-20T23:44:36.079Z,20.30
2018-07-20T23:47:05.574Z,20.30
2018-07-20T23:49:34.270Z,20.20
2018-07-20T23:52:09.638Z,20.20
2018-07-20T23:54:38.325Z,20.20
2018-07-20T23:57:07.028Z,20.20
2018-07-20T23:59:35.781Z,20.10
